sensor_id;sensor_type;location;lat;lon;timestamp;temperature;humidity
19966;DHT22;10144;50.874;4.762;2024-01-07T00:01:03;3.30;99.90
19966;DHT22;10144;50.874;4.762;2024-01-07T00:03:36;3.30;99.90
19966;DHT22;10144;50.874;4.762;2024-01-07T00:06:04;3.30;99.90
19966;DHT22;10144;50.874;4.762;2024-01-07T00:08:33;3.30;99.90
19966;DHT22;10144;50.874;4.762;2024-01-07T00:11:00;3.30;99.90
19966;DHT22;10144;50.874;4.762;2024-01-07T00:13:29;3.20;99.90
19966;DHT22;10144;50.874;4.762;2024-01-07T00:15:57;3.10;99.90
19966;DHT22;10144;50.874;4.762;2024-01-07T00:18:24;3.20;99.90
19966;DHT22;10144;50.874;4.762;2024-01-07T00:20:52;3.20;99.90
19966;DHT22;10144;50.874;4.762;2024-01-07T00:23:18;3.30;99.90
19966;DHT22;10144;50.874;4.762;2024-01-07T00:25:48;3.30;99.90
19966;DHT22;10144;50.874;4.762;2024-01-07T00:28:13;3.40;99.90
19966;DHT22;10144;50.874;4.762;2024-01-07T00:30:42;3.30;99.90
19966;DHT22;10144;50.874;4.762;2024-01-07T00:33:11;3.30;99.90
19966;DHT22;10144;50.874;4.762;2024-01-07T00:35:40;3.30;99.90
19966;DHT22;10144;50.874;4.762;2024-01-07T00:38:08;3.20;99.90
19966;DHT22;10144;50.874;4.762;2024-01-07T00:40:33;3.20;99.90
19966;DHT22;10144;50.874;4.762;2024-01-07T00:43:02;3.20;99.90
19966;DHT22;10144;50.874;4.762;2024-01-07T00:45:28;3.30;99.90
19966;DHT22;10144;50.874;4.762;2024-01-07T00:47:55;3.30;99.90
19966;DHT22;10144;50.874;4.762;2024-01-07T00:50:22;3.40;99.90
19966;DHT22;10144;50.874;4.762;2024-01-07T00:52:50;3.40;99.90
19966;DHT22;10144;50.874;4.762;2024-01-07T00:55:18;3.20;99.90
19966;DHT22;10144;50.874;4.762;2024-01-07T00:57:47;3.10;99.90
19966;DHT22;10144;50.874;4.762;2024-01-07T01:00:13;3.00;99.90
19966;DHT22;10144;50.874;4.762;2024-01-07T01:02:41;2.90;99.90
19966;DHT22;10144;50.874;4.762;2024-01-07T01:05:13;2.90;99.90
19966;DHT22;10144;50.874;4.762;2024-01-07T01:07:41;2.90;99.90
19966;DHT22;10144;50.874;4.762;2024-01-07T01:10:18;2.90;99.90
19966;DHT22;10144;50.874;4.762;2024-01-07T01:12:44;3.00;99.90
19966;DHT22;10144;50.874;4.762;2024-01-07T01:15:13;2.90;99.90
19966;DHT22;10144;50.874;4.762;2024-01-07T01:17:45;2.80;99.90
19966;DHT22;10144;50.874;4.762;2024-01-07T01:20:14;2.80;99.90
19966;DHT22;10144;50.874;4.762;2024-01-07T01:22:41;2.60;99.90
19966;DHT22;10144;50.874;4.762;2024-01-07T01:25:07;2.70;99.90
19966;DHT22;10144;50.874;4.762;2024-01-07T01:27:34;2.70;99.90
19966;DHT22;10144;50.874;4.762;2024-01-07T01:29:59;2.70;99.90
19966;DHT22;10144;50.874;4.762;2024-01-07T01:32:25;2.60;99.90
19966;DHT22;10144;50.874;4.762;2024-01-07T01:34:51;2.70;99.90
19966;DHT22;10144;50.874;4.762;2024-01-07T01:37:20;2.70;99.90
19966;DHT22;10144;50.874;4.762;2024-01-07T01:39:46;2.60;99.90
19966;DHT22;10144;50.874;4.762;2024-01-07T01:42:16;2.70;99.90
19966;DHT22;10144;50.874;4.762;2024-01-07T01:44:45;2.70;99.90
19966;DHT22;10144;50.874;4.762;2024-01-07T01:47:22;2.90;99.90
19966;DHT22;10144;50.874;4.762;2024-01-07T01:49:49;2.80;99.90
19966;DHT22;10144;50.874;4.762;2024-01-07T01:52:16;2.70;99.90
19966;DHT22;10144;50.874;4.762;2024-01-07T01:54:42;2.70;99.90
19966;DHT22;10144;50.874;4.762;2024-01-07T01:57:15;2.80;99.90
19966;DHT22;10144;50.874;4.762;2024-01-07T01:59:44;2.80;99.90
19966;DHT22;10144;50.874;4.762;2024-01-07T02:02:16;2.70;99.90
19966;DHT22;10144;50.874;4.762;2024-01-07T02:04:41;2.60;99.90
19966;DHT22;10144;50.874;4.762;2024-01-07T02:07:13;2.60;99.90
19966;DHT22;10144;50.874;4.762;2024-01-07T02:09:48;2.60;99.90
19966;DHT22;10144;50.874;4.762;2024-01-07T02:12:17;2.60;99.90
19966;DHT22;10144;50.874;4.762;2024-01-07T02:14:46;2.70;99.90
19966;DHT22;10144;50.874;4.762;2024-01-07T02:17:15;2.70;99.90
19966;DHT22;10144;50.874;4.762;2024-01-07T02:19:44;2.80;99.90
19966;DHT22;10144;50.874;4.762;2024-01-07T02:22:10;2.60;99.90
19966;DHT22;10144;50.874;4.762;2024-01-07T02:24:39;2.60;99.90
19966;DHT22;10144;50.874;4.762;2024-01-07T02:27:08;2.70;99.90
19966;DHT22;10144;50.874;4.762;2024-01-07T02:29:33;2.70;99.90
19966;DHT22;10144;50.874;4.762;2024-01-07T02:32:02;2.70;99.90
19966;DHT22;10144;50.874;4.762;2024-01-07T02:34:34;2.70;99.90
19966;DHT22;10144;50.874;4.762;2024-01-07T02:37:00;2.60;99.90
19966;DHT22;10144;50.874;4.762;2024-01-07T02:39:28;2.60;99.90
19966;DHT22;10144;50.874;4.762;2024-01-07T02:41:54;2.70;99.90
19966;DHT22;10144;50.874;4.762;2024-01-07T02:44:22;2.70;99.90
19966;DHT22;10144;50.874;4.762;2024-01-07T02:46:51;2.80;99.90
19966;DHT22;10144;50.874;4.762;2024-01-07T02:49:17;2.60;99.90
19966;DHT22;10144;50.874;4.762;2024-01-07T02:51:44;2.70;99.90
19966;DHT22;10144;50.874;4.762;2024-01-07T02:54:20;2.60;99.90
19966;DHT22;10144;50.874;4.762;2024-01-07T02:56:49;2.70;99.90
19966;DHT22;10144;50.874;4.762;2024-01-07T02:59:18;2.80;99.90
19966;DHT22;10144;50.874;4.762;2024-01-07T03:01:49;2.70;99.90
19966;DHT22;10144;50.874;4.762;2024-01-07T03:04:18;2.70;99.90
19966;DHT22;10144;50.874;4.762;2024-01-07T03:06:47;2.50;99.90
19966;DHT22;10144;50.874;4.762;2024-01-07T03:09:14;2.60;99.90
19966;DHT22;10144;50.874;4.762;2024-01-07T03:11:42;2.50;99.90
19966;DHT22;10144;50.874;4.762;2024-01-07T03:14:11;2.50;99.90
19966;DHT22;10144;50.874;4.762;2024-01-07T03:16:40;2.60;99.90
19966;DHT22;10144;50.874;4.762;2024-01-07T03:19:06;2.60;99.90
19966;DHT22;10144;50.874;4.762;2024-01-07T03:21:33;2.60;99.90
19966;DHT22;10144;50.874;4.762;2024-01-07T03:24:02;2.60;99.90
19966;DHT22;10144;50.874;4.762;2024-01-07T03:26:31;2.50;99.90
19966;DHT22;10144;50.874;4.762;2024-01-07T03:29:03;2.60;99.90
19966;DHT22;10144;50.874;4.762;2024-01-07T03:31:36;2.70;99.90
19966;DHT22;10144;50.874;4.762;2024-01-07T03:34:05;2.50;99.90
19966;DHT22;10144;50.874;4.762;2024-01-07T03:36:31;2.40;99.90
19966;DHT22;10144;50.874;4.762;2024-01-07T03:39:00;2.30;99.90
19966;DHT22;10144;50.874;4.762;2024-01-07T03:41:29;2.40;99.90
19966;DHT22;10144;50.874;4.762;2024-01-07T03:43:58;2.40;99.90
19966;DHT22;10144;50.874;4.762;2024-01-07T03:46:27;2.50;99.90
19966;DHT22;10144;50.874;4.762;2024-01-07T03:48:56;2.50;99.90
19966;DHT22;10144;50.874;4.762;2024-01-07T03:51:23;2.50;99.90
19966;DHT22;10144;50.874;4.762;2024-01-07T03:53:52;2.40;99.90
19966;DHT22;10144;50.874;4.762;2024-01-07T03:56:21;2.50;99.90
19966;DHT22;10144;50.874;4.762;2024-01-07T03:58:50;2.60;99.90
19966;DHT22;10144;50.874;4.762;2024-01-07T04:01:31;2.60;99.90
19966;DHT22;10144;50.874;4.762;2024-01-07T04:04:00;2.40;99.90
19966;DHT22;10144;50.874;4.762;2024-01-07T04:06:28;2.50;99.90
19966;DHT22;10144;50.874;4.762;2024-01-07T04:08:57;2.40;99.90
19966;DHT22;10144;50.874;4.762;2024-01-07T04:11:24;2.30;99.90
19966;DHT22;10144;50.874;4.762;2024-01-07T04:13:56;2.30;99.90
19966;DHT22;10144;50.874;4.762;2024-01-07T04:16:25;2.20;99.90
19966;DHT22;10144;50.874;4.762;2024-01-07T04:18:54;2.10;99.90
19966;DHT22;10144;50.874;4.762;2024-01-07T04:21:22;2.20;99.90
19966;DHT22;10144;50.874;4.762;2024-01-07T04:23:49;2.30;99.90
19966;DHT22;10144;50.874;4.762;2024-01-07T04:26:18;2.30;99.90
19966;DHT22;10144;50.874;4.762;2024-01-07T04:28:47;2.30;99.90
19966;DHT22;10144;50.874;4.762;2024-01-07T04:31:16;2.50;99.90
19966;DHT22;10144;50.874;4.762;2024-01-07T04:33:47;2.50;99.90
19966;DHT22;10144;50.874;4.762;2024-01-07T04:36:14;2.50;99.90
19966;DHT22;10144;50.874;4.762;2024-01-07T04:38:41;2.50;99.90
19966;DHT22;10144;50.874;4.762;2024-01-07T04:41:10;2.50;99.90
19966;DHT22;10144;50.874;4.762;2024-01-07T04:43:39;2.50;99.90
19966;DHT22;10144;50.874;4.762;2024-01-07T04:46:09;2.40;99.90
19966;DHT22;10144;50.874;4.762;2024-01-07T04:48:39;2.30;99.90
19966;DHT22;10144;50.874;4.762;2024-01-07T04:51:08;2.40;99.90
19966;DHT22;10144;50.874;4.762;2024-01-07T04:53:36;2.50;99.90
19966;DHT22;10144;50.874;4.762;2024-01-07T04:56:05;2.60;99.90
19966;DHT22;10144;50.874;4.762;2024-01-07T04:58:34;2.60;99.90
19966;DHT22;10144;50.874;4.762;2024-01-07T05:01:03;2.50;99.90
19966;DHT22;10144;50.874;4.762;2024-01-07T05:03:34;2.40;99.90
19966;DHT22;10144;50.874;4.762;2024-01-07T05:06:04;2.40;99.90
19966;DHT22;10144;50.874;4.762;2024-01-07T05:08:33;2.40;99.90
19966;DHT22;10144;50.874;4.762;2024-01-07T05:11:01;2.50;99.90
19966;DHT22;10144;50.874;4.762;2024-01-07T05:13:30;2.40;99.90
19966;DHT22;10144;50.874;4.762;2024-01-07T05:15:58;2.30;99.90
19966;DHT22;10144;50.874;4.762;2024-01-07T05:18:27;2.30;99.90
19966;DHT22;10144;50.874;4.762;2024-01-07T05:20:56;2.30;99.90
19966;DHT22;10144;50.874;4.762;2024-01-07T05:23:25;2.30;99.90
19966;DHT22;10144;50.874;4.762;2024-01-07T05:25:59;2.30;99.90
19966;DHT22;10144;50.874;4.762;2024-01-07T05:28:28;2.40;99.90
19966;DHT22;10144;50.874;4.762;2024-01-07T05:30:54;2.40;99.90
19966;DHT22;10144;50.874;4.762;2024-01-07T05:33:20;2.50;99.90
19966;DHT22;10144;50.874;4.762;2024-01-07T05:35:47;2.50;99.90
19966;DHT22;10144;50.874;4.762;2024-01-07T05:38:14;2.50;99.90
19966;DHT22;10144;50.874;4.762;2024-01-07T05:40:45;2.60;99.90
19966;DHT22;10144;50.874;4.762;2024-01-07T05:43:11;2.70;99.90
19966;DHT22;10144;50.874;4.762;2024-01-07T05:45:38;2.50;99.90
19966;DHT22;10144;50.874;4.762;2024-01-07T05:48:07;2.40;99.90
19966;DHT22;10144;50.874;4.762;2024-01-07T05:50:33;2.10;99.90
19966;DHT22;10144;50.874;4.762;2024-01-07T05:53:01;2.10;99.90
19966;DHT22;10144;50.874;4.762;2024-01-07T05:55:30;2.20;99.90
19966;DHT22;10144;50.874;4.762;2024-01-07T05:57:58;2.20;99.90
19966;DHT22;10144;50.874;4.762;2024-01-07T06:00:36;2.20;99.90
19966;DHT22;10144;50.874;4.762;2024-01-07T06:03:10;2.00;99.90
19966;DHT22;10144;50.874;4.762;2024-01-07T06:05:38;2.00;99.90
19966;DHT22;10144;50.874;4.762;2024-01-07T06:08:04;2.00;99.90
19966;DHT22;10144;50.874;4.762;2024-01-07T06:10:31;2.00;99.90
19966;DHT22;10144;50.874;4.762;2024-01-07T06:12:58;1.90;99.90
19966;DHT22;10144;50.874;4.762;2024-01-07T06:15:25;1.90;99.90
19966;DHT22;10144;50.874;4.762;2024-01-07T06:17:52;2.10;99.90
19966;DHT22;10144;50.874;4.762;2024-01-07T06:20:21;2.10;99.90
19966;DHT22;10144;50.874;4.762;2024-01-07T06:22:50;2.20;99.90
19966;DHT22;10144;50.874;4.762;2024-01-07T06:25:16;2.20;99.90
19966;DHT22;10144;50.874;4.762;2024-01-07T06:27:43;2.20;99.90
19966;DHT22;10144;50.874;4.762;2024-01-07T06:30:09;2.20;99.90
19966;DHT22;10144;50.874;4.762;2024-01-07T06:32:37;2.30;99.90
19966;DHT22;10144;50.874;4.762;2024-01-07T06:35:03;2.20;99.90
19966;DHT22;10144;50.874;4.762;2024-01-07T06:37:30;2.20;99.90
19966;DHT22;10144;50.874;4.762;2024-01-07T06:40:02;2.10;99.90
19966;DHT22;10144;50.874;4.762;2024-01-07T06:42:31;2.20;99.90
19966;DHT22;10144;50.874;4.762;2024-01-07T06:44:59;2.10;99.90
19966;DHT22;10144;50.874;4.762;2024-01-07T06:47:26;2.00;99.90
19966;DHT22;10144;50.874;4.762;2024-01-07T06:49:55;1.90;99.90
19966;DHT22;10144;50.874;4.762;2024-01-07T06:52:24;1.90;99.90
19966;DHT22;10144;50.874;4.762;2024-01-07T06:57:39;2.10;99.90
19966;DHT22;10144;50.874;4.762;2024-01-07T07:00:07;2.20;99.90
19966;DHT22;10144;50.874;4.762;2024-01-07T07:02:34;2.20;99.90
19966;DHT22;10144;50.874;4.762;2024-01-07T07:05:02;2.20;99.90
19966;DHT22;10144;50.874;4.762;2024-01-07T07:07:28;2.20;99.90
19966;DHT22;10144;50.874;4.762;2024-01-07T07:09:57;2.20;99.90
19966;DHT22;10144;50.874;4.762;2024-01-07T07:12:25;2.30;99.90
19966;DHT22;10144;50.874;4.762;2024-01-07T07:14:50;2.20;99.90
19966;DHT22;10144;50.874;4.762;2024-01-07T07:17:18;2.10;99.90
19966;DHT22;10144;50.874;4.762;2024-01-07T07:19:45;2.10;99.90
19966;DHT22;10144;50.874;4.762;2024-01-07T07:22:14;2.10;99.90
19966;DHT22;10144;50.874;4.762;2024-01-07T07:24:43;2.20;99.90
19966;DHT22;10144;50.874;4.762;2024-01-07T07:27:09;2.30;99.90
19966;DHT22;10144;50.874;4.762;2024-01-07T07:29:38;2.30;99.90
19966;DHT22;10144;50.874;4.762;2024-01-07T07:32:04;2.20;99.90
19966;DHT22;10144;50.874;4.762;2024-01-07T07:34:32;2.30;99.90
19966;DHT22;10144;50.874;4.762;2024-01-07T07:37:04;2.20;99.90
19966;DHT22;10144;50.874;4.762;2024-01-07T07:39:30;2.20;99.90
19966;DHT22;10144;50.874;4.762;2024-01-07T07:41:59;2.20;99.90
19966;DHT22;10144;50.874;4.762;2024-01-07T07:44:27;2.20;99.90
19966;DHT22;10144;50.874;4.762;2024-01-07T07:46:54;2.10;99.90
19966;DHT22;10144;50.874;4.762;2024-01-07T07:49:22;2.20;99.90
19966;DHT22;10144;50.874;4.762;2024-01-07T07:51:51;2.20;99.90
19966;DHT22;10144;50.874;4.762;2024-01-07T07:54:18;2.20;99.90
19966;DHT22;10144;50.874;4.762;2024-01-07T07:56:44;2.00;99.90
19966;DHT22;10144;50.874;4.762;2024-01-07T07:59:09;2.00;99.90
19966;DHT22;10144;50.874;4.762;2024-01-07T08:01:38;2.10;99.90
19966;DHT22;10144;50.874;4.762;2024-01-07T08:04:08;2.20;99.90
19966;DHT22;10144;50.874;4.762;2024-01-07T08:06:37;2.20;99.90
19966;DHT22;10144;50.874;4.762;2024-01-07T08:09:06;2.30;99.90
19966;DHT22;10144;50.874;4.762;2024-01-07T08:11:34;2.20;99.90
19966;DHT22;10144;50.874;4.762;2024-01-07T08:14:02;2.20;99.90
19966;DHT22;10144;50.874;4.762;2024-01-07T08:16:34;2.20;99.90
19966;DHT22;10144;50.874;4.762;2024-01-07T08:19:01;2.30;99.90
19966;DHT22;10144;50.874;4.762;2024-01-07T08:21:30;2.20;99.90
19966;DHT22;10144;50.874;4.762;2024-01-07T08:23:58;2.20;99.90
19966;DHT22;10144;50.874;4.762;2024-01-07T08:26:28;2.20;99.90
19966;DHT22;10144;50.874;4.762;2024-01-07T08:28:54;2.30;99.90
19966;DHT22;10144;50.874;4.762;2024-01-07T08:31:23;2.30;99.90
19966;DHT22;10144;50.874;4.762;2024-01-07T08:33:51;2.20;99.90
19966;DHT22;10144;50.874;4.762;2024-01-07T08:36:20;2.10;99.90
19966;DHT22;10144;50.874;4.762;2024-01-07T08:38:49;2.20;99.90
19966;DHT22;10144;50.874;4.762;2024-01-07T08:41:21;2.20;99.90
19966;DHT22;10144;50.874;4.762;2024-01-07T08:43:50;2.30;99.90
19966;DHT22;10144;50.874;4.762;2024-01-07T08:46:16;2.30;99.90
19966;DHT22;10144;50.874;4.762;2024-01-07T08:48:43;2.30;99.90
19966;DHT22;10144;50.874;4.762;2024-01-07T08:51:13;2.40;99.90
19966;DHT22;10144;50.874;4.762;2024-01-07T08:53:41;2.20;99.90
19966;DHT22;10144;50.874;4.762;2024-01-07T08:56:09;2.10;99.90
19966;DHT22;10144;50.874;4.762;2024-01-07T08:58:40;2.00;99.90
19966;DHT22;10144;50.874;4.762;2024-01-07T09:01:09;2.10;99.90
19966;DHT22;10144;50.874;4.762;2024-01-07T09:03:34;2.00;99.90
19966;DHT22;10144;50.874;4.762;2024-01-07T09:06:03;1.90;99.90
19966;DHT22;10144;50.874;4.762;2024-01-07T09:08:31;2.00;99.90
19966;DHT22;10144;50.874;4.762;2024-01-07T09:10:58;2.00;99.90
19966;DHT22;10144;50.874;4.762;2024-01-07T09:13:27;2.00;99.90
19966;DHT22;10144;50.874;4.762;2024-01-07T09:15:53;1.80;99.90
19966;DHT22;10144;50.874;4.762;2024-01-07T09:18:22;1.60;99.90
19966;DHT22;10144;50.874;4.762;2024-01-07T09:20:49;1.60;99.90
19966;DHT22;10144;50.874;4.762;2024-01-07T09:23:20;1.50;99.90
19966;DHT22;10144;50.874;4.762;2024-01-07T09:25:48;1.50;99.90
19966;DHT22;10144;50.874;4.762;2024-01-07T09:28:17;1.50;99.90
19966;DHT22;10144;50.874;4.762;2024-01-07T09:30:44;1.60;99.90
19966;DHT22;10144;50.874;4.762;2024-01-07T09:33:13;1.70;99.90
19966;DHT22;10144;50.874;4.762;2024-01-07T09:35:43;1.80;99.90
19966;DHT22;10144;50.874;4.762;2024-01-07T09:38:10;1.70;99.90
19966;DHT22;10144;50.874;4.762;2024-01-07T09:40:39;1.60;99.90
19966;DHT22;10144;50.874;4.762;2024-01-07T09:43:11;1.60;99.90
19966;DHT22;10144;50.874;4.762;2024-01-07T09:45:42;1.50;99.90
19966;DHT22;10144;50.874;4.762;2024-01-07T09:48:14;1.50;99.90
19966;DHT22;10144;50.874;4.762;2024-01-07T09:50:42;1.50;99.90
19966;DHT22;10144;50.874;4.762;2024-01-07T09:53:15;1.50;99.90
19966;DHT22;10144;50.874;4.762;2024-01-07T09:56:23;1.50;99.90
19966;DHT22;10144;50.874;4.762;2024-01-07T09:58:50;1.40;99.90
19966;DHT22;10144;50.874;4.762;2024-01-07T10:01:19;1.40;99.90
19966;DHT22;10144;50.874;4.762;2024-01-07T10:03:52;1.40;99.90
19966;DHT22;10144;50.874;4.762;2024-01-07T10:06:19;1.30;99.90
19966;DHT22;10144;50.874;4.762;2024-01-07T10:08:48;1.20;99.90
19966;DHT22;10144;50.874;4.762;2024-01-07T10:11:21;1.10;99.90
19966;DHT22;10144;50.874;4.762;2024-01-07T10:13:49;1.10;99.90
19966;DHT22;10144;50.874;4.762;2024-01-07T10:16:16;1.10;99.90
19966;DHT22;10144;50.874;4.762;2024-01-07T10:18:42;1.30;99.90
19966;DHT22;10144;50.874;4.762;2024-01-07T10:21:11;1.40;99.90
19966;DHT22;10144;50.874;4.762;2024-01-07T10:23:39;1.50;99.90
19966;DHT22;10144;50.874;4.762;2024-01-07T10:26:11;1.40;99.90
19966;DHT22;10144;50.874;4.762;2024-01-07T10:28:40;1.40;99.90
19966;DHT22;10144;50.874;4.762;2024-01-07T10:31:06;1.40;99.90
19966;DHT22;10144;50.874;4.762;2024-01-07T10:33:34;1.40;99.90
19966;DHT22;10144;50.874;4.762;2024-01-07T10:36:03;1.30;99.90
19966;DHT22;10144;50.874;4.762;2024-01-07T10:38:33;1.40;99.90
19966;DHT22;10144;50.874;4.762;2024-01-07T10:41:00;1.40;99.90
19966;DHT22;10144;50.874;4.762;2024-01-07T10:43:30;1.30;99.90
19966;DHT22;10144;50.874;4.762;2024-01-07T10:45:55;1.30;99.90
19966;DHT22;10144;50.874;4.762;2024-01-07T10:48:30;1.20;99.90
19966;DHT22;10144;50.874;4.762;2024-01-07T10:50:59;1.30;99.90
19966;DHT22;10144;50.874;4.762;2024-01-07T10:53:37;1.20;99.90
19966;DHT22;10144;50.874;4.762;2024-01-07T10:56:11;1.30;99.90
19966;DHT22;10144;50.874;4.762;2024-01-07T10:58:37;1.20;99.90
19966;DHT22;10144;50.874;4.762;2024-01-07T11:01:07;1.10;99.90
19966;DHT22;10144;50.874;4.762;2024-01-07T11:03:55;1.10;99.90
19966;DHT22;10144;50.874;4.762;2024-01-07T11:09:20;1.10;99.90
19966;DHT22;10144;50.874;4.762;2024-01-07T11:11:46;1.00;99.90
19966;DHT22;10144;50.874;4.762;2024-01-07T11:17:08;1.10;99.90
19966;DHT22;10144;50.874;4.762;2024-01-07T11:19:38;1.20;99.90
19966;DHT22;10144;50.874;4.762;2024-01-07T11:22:26;1.20;99.90
19966;DHT22;10144;50.874;4.762;2024-01-07T11:24:58;1.10;99.90
19966;DHT22;10144;50.874;4.762;2024-01-07T11:27:27;1.10;99.90
19966;DHT22;10144;50.874;4.762;2024-01-07T11:32:22;1.10;99.90
19966;DHT22;10144;50.874;4.762;2024-01-07T11:34:57;1.20;99.90
19966;DHT22;10144;50.874;4.762;2024-01-07T11:37:25;1.30;99.90
19966;DHT22;10144;50.874;4.762;2024-01-07T11:39:57;1.30;99.90
19966;DHT22;10144;50.874;4.762;2024-01-07T11:42:23;1.20;99.90
19966;DHT22;10144;50.874;4.762;2024-01-07T11:44:53;1.20;99.90
19966;DHT22;10144;50.874;4.762;2024-01-07T11:47:22;1.30;99.90
19966;DHT22;10144;50.874;4.762;2024-01-07T11:49:50;1.20;99.90
19966;DHT22;10144;50.874;4.762;2024-01-07T11:52:19;1.20;99.90
19966;DHT22;10144;50.874;4.762;2024-01-07T11:54:47;1.20;99.90
19966;DHT22;10144;50.874;4.762;2024-01-07T11:57:14;1.30;99.90
19966;DHT22;10144;50.874;4.762;2024-01-07T11:59:40;1.40;99.90
19966;DHT22;10144;50.874;4.762;2024-01-07T12:02:08;1.40;99.90
19966;DHT22;10144;50.874;4.762;2024-01-07T12:04:35;1.40;99.90
19966;DHT22;10144;50.874;4.762;2024-01-07T12:07:04;1.40;99.90
19966;DHT22;10144;50.874;4.762;2024-01-07T12:09:34;1.30;99.90
19966;DHT22;10144;50.874;4.762;2024-01-07T12:12:02;1.20;99.90
19966;DHT22;10144;50.874;4.762;2024-01-07T12:14:30;1.10;99.90
19966;DHT22;10144;50.874;4.762;2024-01-07T12:16:57;1.20;99.90
19966;DHT22;10144;50.874;4.762;2024-01-07T12:19:31;1.20;99.90
19966;DHT22;10144;50.874;4.762;2024-01-07T12:22:06;1.20;99.90
19966;DHT22;10144;50.874;4.762;2024-01-07T12:24:31;1.20;99.90
19966;DHT22;10144;50.874;4.762;2024-01-07T12:27:07;1.30;99.90
19966;DHT22;10144;50.874;4.762;2024-01-07T12:29:34;1.40;99.90
19966;DHT22;10144;50.874;4.762;2024-01-07T12:32:04;1.30;99.90
19966;DHT22;10144;50.874;4.762;2024-01-07T12:34:30;1.20;99.90
19966;DHT22;10144;50.874;4.762;2024-01-07T12:36:59;1.20;99.90
19966;DHT22;10144;50.874;4.762;2024-01-07T12:39:28;1.30;99.90
19966;DHT22;10144;50.874;4.762;2024-01-07T12:41:54;1.30;99.90
19966;DHT22;10144;50.874;4.762;2024-01-07T12:44:26;1.30;99.90
19966;DHT22;10144;50.874;4.762;2024-01-07T12:46:54;1.20;99.90
19966;DHT22;10144;50.874;4.762;2024-01-07T12:49:22;1.30;99.90
19966;DHT22;10144;50.874;4.762;2024-01-07T12:51:50;1.30;99.90
19966;DHT22;10144;50.874;4.762;2024-01-07T12:54:18;1.20;99.90
19966;DHT22;10144;50.874;4.762;2024-01-07T12:56:47;1.30;99.90
19966;DHT22;10144;50.874;4.762;2024-01-07T12:59:13;1.20;99.90
19966;DHT22;10144;50.874;4.762;2024-01-07T13:01:41;1.20;99.90
19966;DHT22;10144;50.874;4.762;2024-01-07T13:04:09;1.10;99.90
19966;DHT22;10144;50.874;4.762;2024-01-07T13:06:35;1.20;99.90
19966;DHT22;10144;50.874;4.762;2024-01-07T13:09:02;1.20;99.90
19966;DHT22;10144;50.874;4.762;2024-01-07T13:11:31;1.30;99.90
19966;DHT22;10144;50.874;4.762;2024-01-07T13:13:57;1.20;99.90
19966;DHT22;10144;50.874;4.762;2024-01-07T13:16:28;1.10;99.90
19966;DHT22;10144;50.874;4.762;2024-01-07T13:18:56;1.10;99.90
19966;DHT22;10144;50.874;4.762;2024-01-07T13:21:22;1.10;99.90
19966;DHT22;10144;50.874;4.762;2024-01-07T13:23:51;1.10;99.90
19966;DHT22;10144;50.874;4.762;2024-01-07T13:26:19;1.20;99.90
19966;DHT22;10144;50.874;4.762;2024-01-07T13:28:46;1.10;99.90
19966;DHT22;10144;50.874;4.762;2024-01-07T13:31:15;1.20;99.90
19966;DHT22;10144;50.874;4.762;2024-01-07T13:33:43;1.30;99.90
19966;DHT22;10144;50.874;4.762;2024-01-07T13:36:11;1.30;99.90
19966;DHT22;10144;50.874;4.762;2024-01-07T13:38:43;1.20;99.90
19966;DHT22;10144;50.874;4.762;2024-01-07T13:41:12;1.10;99.90
19966;DHT22;10144;50.874;4.762;2024-01-07T13:43:44;1.10;99.90
19966;DHT22;10144;50.874;4.762;2024-01-07T13:46:12;1.10;99.90
19966;DHT22;10144;50.874;4.762;2024-01-07T13:48:39;1.20;99.90
19966;DHT22;10144;50.874;4.762;2024-01-07T13:51:11;1.20;99.90
19966;DHT22;10144;50.874;4.762;2024-01-07T13:53:37;1.30;99.90
19966;DHT22;10144;50.874;4.762;2024-01-07T13:56:04;1.20;99.90
19966;DHT22;10144;50.874;4.762;2024-01-07T13:58:33;1.20;99.90
19966;DHT22;10144;50.874;4.762;2024-01-07T14:00:59;1.20;99.90
19966;DHT22;10144;50.874;4.762;2024-01-07T14:03:27;1.30;99.90
19966;DHT22;10144;50.874;4.762;2024-01-07T14:05:53;1.20;99.90
19966;DHT22;10144;50.874;4.762;2024-01-07T14:08:23;1.20;99.90
19966;DHT22;10144;50.874;4.762;2024-01-07T14:10:52;1.30;99.90
19966;DHT22;10144;50.874;4.762;2024-01-07T14:13:19;1.40;99.90
19966;DHT22;10144;50.874;4.762;2024-01-07T14:15:45;1.40;99.90
19966;DHT22;10144;50.874;4.762;2024-01-07T14:18:14;1.20;99.90
19966;DHT22;10144;50.874;4.762;2024-01-07T14:20:42;1.00;99.90
19966;DHT22;10144;50.874;4.762;2024-01-07T14:23:11;1.00;99.90
19966;DHT22;10144;50.874;4.762;2024-01-07T14:25:38;1.10;99.90
19966;DHT22;10144;50.874;4.762;2024-01-07T14:28:07;1.00;99.90
19966;DHT22;10144;50.874;4.762;2024-01-07T14:30:36;1.10;99.90
19966;DHT22;10144;50.874;4.762;2024-01-07T14:33:02;1.00;99.90
19966;DHT22;10144;50.874;4.762;2024-01-07T14:35:30;0.90;99.90
19966;DHT22;10144;50.874;4.762;2024-01-07T14:37:59;0.90;99.90
19966;DHT22;10144;50.874;4.762;2024-01-07T14:40:26;0.70;99.90
19966;DHT22;10144;50.874;4.762;2024-01-07T14:42:52;0.80;99.90
19966;DHT22;10144;50.874;4.762;2024-01-07T14:45:24;0.80;99.90
19966;DHT22;10144;50.874;4.762;2024-01-07T14:47:51;0.80;99.90
19966;DHT22;10144;50.874;4.762;2024-01-07T14:50:18;0.70;99.90
19966;DHT22;10144;50.874;4.762;2024-01-07T14:52:47;0.70;99.90
19966;DHT22;10144;50.874;4.762;2024-01-07T14:55:14;0.70;99.90
19966;DHT22;10144;50.874;4.762;2024-01-07T14:57:43;0.80;99.90
19966;DHT22;10144;50.874;4.762;2024-01-07T15:00:12;0.80;99.90
19966;DHT22;10144;50.874;4.762;2024-01-07T15:02:48;0.70;99.90
19966;DHT22;10144;50.874;4.762;2024-01-07T15:05:15;0.70;99.90
19966;DHT22;10144;50.874;4.762;2024-01-07T15:07:42;0.70;99.90
19966;DHT22;10144;50.874;4.762;2024-01-07T15:10:18;0.70;99.90
19966;DHT22;10144;50.874;4.762;2024-01-07T15:12:50;0.60;99.90
19966;DHT22;10144;50.874;4.762;2024-01-07T15:15:19;0.70;99.90
19966;DHT22;10144;50.874;4.762;2024-01-07T15:17:49;0.70;99.90
19966;DHT22;10144;50.874;4.762;2024-01-07T15:20:18;0.70;99.90
19966;DHT22;10144;50.874;4.762;2024-01-07T15:22:49;0.60;99.90
19966;DHT22;10144;50.874;4.762;2024-01-07T15:25:16;0.60;99.90
19966;DHT22;10144;50.874;4.762;2024-01-07T15:27:43;0.60;99.90
19966;DHT22;10144;50.874;4.762;2024-01-07T15:30:13;0.50;99.90
19966;DHT22;10144;50.874;4.762;2024-01-07T15:32:42;0.40;99.90
19966;DHT22;10144;50.874;4.762;2024-01-07T15:35:10;0.40;99.90
19966;DHT22;10144;50.874;4.762;2024-01-07T15:37:37;0.40;99.90
19966;DHT22;10144;50.874;4.762;2024-01-07T15:40:06;0.30;99.90
19966;DHT22;10144;50.874;4.762;2024-01-07T15:42:34;0.30;99.90
19966;DHT22;10144;50.874;4.762;2024-01-07T15:45:01;0.20;99.90
19966;DHT22;10144;50.874;4.762;2024-01-07T15:47:27;0.10;99.90
19966;DHT22;10144;50.874;4.762;2024-01-07T15:49:53;0.20;99.90
19966;DHT22;10144;50.874;4.762;2024-01-07T15:52:18;0.10;99.90
19966;DHT22;10144;50.874;4.762;2024-01-07T15:54:45;0.20;99.90
19966;DHT22;10144;50.874;4.762;2024-01-07T15:57:28;0.20;99.90
19966;DHT22;10144;50.874;4.762;2024-01-07T15:59:54;0.30;99.90
19966;DHT22;10144;50.874;4.762;2024-01-07T16:02:20;0.40;99.90
19966;DHT22;10144;50.874;4.762;2024-01-07T16:04:46;0.40;99.90